Time;durP1;ratioP1;P1;durP2;ratioP2;P2;SDS_P1;SDS_P2;PMS_P1;PMS_P2;Temp;Humidity;BMP_temperature;BMP_pressure;BME280_temperature;BME280_humidity;BME280_pressure;Samples;Min_cycle;Max_cycle;Signal;HPM_P1;HPM_P2
2024/01/31 00:01:56;;;;;;;16.42;13.73;;;1.90;99.90;;;;;;4985808;28;20228;-62
2024/01/31 00:04:23;;;;;;;17.35;14.82;;;1.90;99.90;;;;;;4987915;28;20226;-60
2024/01/31 00:06:52;;;;;;;16.92;15.18;;;2.00;99.90;;;;;;4992589;28;20212;-59
2024/01/31 00:09:18;;;;;;;22.30;15.80;;;2.00;99.90;;;;;;4990021;28;20655;-60
2024/01/31 00:11:45;;;;;;;16.10;14.52;;;2.10;99.90;;;;;;5022793;23;20709;-60
2024/01/31 00:14:15;;;;;;;18.77;15.15;;;2.10;99.90;;;;;;5020758;28;20203;-62
2024/01/31 00:16:43;;;;;;;17.42;15.73;;;2.10;99.90;;;;;;5020624;28;20237;-62
2024/01/31 00:19:10;;;;;;;15.95;14.35;;;2.20;99.90;;;;;;5029038;28;20214;-62
2024/01/31 00:21:38;;;;;;;16.83;13.85;;;2.20;99.90;;;;;;5013002;28;20228;-61
2024/01/31 00:24:07;;;;;;;14.30;13.10;;;2.30;99.90;;;;;;5022144;28;20218;-62
2024/01/31 00:26:33;;;;;;;16.00;13.82;;;2.30;99.90;;;;;;5023556;28;20313;-62
2024/01/31 00:29:00;;;;;;;17.50;14.07;;;2.30;99.90;;;;;;5023489;28;20756;-62
2024/01/31 00:31:27;;;;;;;15.80;14.10;;;2.30;99.90;;;;;;5023133;28;20231;-62
2024/01/31 00:33:54;;;;;;;16.27;14.77;;;2.40;99.90;;;;;;5030786;28;20581;-62
2024/01/31 00:36:21;;;;;;;17.25;15.52;;;2.40;99.90;;;;;;5030978;28;20210;-62
2024/01/31 00:38:48;;;;;;;17.88;16.27;;;2.40;99.90;;;;;;5023437;28;20673;-62
2024/01/31 00:41:17;;;;;;;16.08;14.15;;;2.40;99.90;;;;;;5030319;28;20257;-62
2024/01/31 00:43:44;;;;;;;17.23;15.45;;;2.50;99.90;;;;;;5031240;28;20207;-62
2024/01/31 00:46:11;;;;;;;15.48;14.07;;;2.50;99.90;;;;;;5031220;28;20235;-62
2024/01/31 00:48:38;;;;;;;16.35;14.30;;;2.50;99.90;;;;;;5030995;28;20203;-62
2024/01/31 00:51:11;;;;;;;14.90;13.45;;;2.60;99.90;;;;;;5030899;28;20230;-62
2024/01/31 00:53:38;;;;;;;14.40;12.93;;;2.60;99.90;;;;;;5031955;28;20604;-60
2024/01/31 00:56:05;;;;;;;15.88;14.32;;;2.60;99.90;;;;;;5031802;28;20322;-62
2024/01/31 00:58:34;;;;;;;15.20;13.70;;;2.60;99.90;;;;;;5031471;28;20211;-62
2024/01/31 01:01:01;;;;;;;14.38;13.02;;;2.70;99.90;;;;;;5031032;28;20213;-62
2024/01/31 01:03:27;;;;;;;14.35;13.10;;;2.70;99.90;;;;;;5031275;28;20234;-62
2024/01/31 01:05:54;;;;;;;13.73;12.43;;;2.70;99.90;;;;;;5031644;28;20298;-60
2024/01/31 01:08:21;;;;;;;13.65;12.23;;;2.70;99.90;;;;;;5031218;28;20221;-62
2024/01/31 01:10:48;;;;;;;15.38;13.77;;;2.70;99.90;;;;;;5030868;28;20226;-62
2024/01/31 01:13:15;;;;;;;15.52;12.70;;;2.80;99.90;;;;;;5031286;28;20690;-61
2024/01/31 01:15:43;;;;;;;14.05;12.80;;;2.80;99.90;;;;;;5029962;28;20218;-62
2024/01/31 01:18:10;;;;;;;13.80;12.40;;;2.80;99.90;;;;;;5031071;28;20314;-62
2024/01/31 01:20:36;;;;;;;16.75;15.27;;;2.80;99.90;;;;;;5031171;28;20945;-62
2024/01/31 01:23:03;;;;;;;15.27;12.38;;;2.90;99.90;;;;;;5031497;28;20319;-62
2024/01/31 01:25:30;;;;;;;15.30;13.65;;;2.90;99.90;;;;;;5031100;28;20211;-62
2024/01/31 01:27:57;;;;;;;15.98;13.65;;;2.90;99.90;;;;;;5030976;28;20221;-62
2024/01/31 01:30:24;;;;;;;13.77;12.50;;;2.90;99.90;;;;;;5030406;28;20682;-62
2024/01/31 01:32:52;;;;;;;14.07;12.68;;;3.00;99.90;;;;;;5030796;28;20227;-61
2024/01/31 01:35:19;;;;;;;15.60;13.27;;;2.90;99.90;;;;;;5030865;28;20206;-61
2024/01/31 01:37:46;;;;;;;13.73;12.48;;;3.00;99.90;;;;;;5030988;28;20307;-62
2024/01/31 01:40:15;;;;;;;14.55;12.68;;;3.00;99.90;;;;;;5030677;28;20210;-61
2024/01/31 01:42:42;;;;;;;14.93;13.52;;;3.00;99.90;;;;;;5030191;28;20234;-62
2024/01/31 01:45:10;;;;;;;12.75;11.48;;;3.10;99.90;;;;;;5030614;28;20206;-62
2024/01/31 01:47:41;;;;;;;13.40;12.00;;;3.10;99.90;;;;;;5030658;28;20215;-62
2024/01/31 01:50:12;;;;;;;16.80;13.20;;;3.10;99.90;;;;;;5030749;28;20258;-61
2024/01/31 01:52:39;;;;;;;13.57;12.32;;;3.10;99.90;;;;;;5030352;28;20261;-63
2024/01/31 01:55:07;;;;;;;12.68;11.60;;;3.10;99.90;;;;;;5030923;28;20207;-62
2024/01/31 01:57:36;;;;;;;17.60;13.43;;;3.10;99.90;;;;;;5030505;28;20245;-62
2024/01/31 02:00:04;;;;;;;13.38;12.18;;;3.20;99.90;;;;;;5030309;28;20684;-62
2024/01/31 02:02:32;;;;;;;14.85;13.15;;;3.20;99.90;;;;;;5029845;28;20288;-62
2024/01/31 02:04:59;;;;;;;13.02;11.73;;;3.20;99.90;;;;;;5030423;28;20211;-62
2024/01/31 02:07:28;;;;;;;17.90;13.10;;;3.30;99.90;;;;;;5030448;28;20249;-62
2024/01/31 02:09:55;;;;;;;13.77;12.48;;;3.20;99.90;;;;;;5030054;28;20219;-62
2024/01/31 02:12:22;;;;;;;14.48;13.00;;;3.20;99.90;;;;;;5029602;28;20231;-61
2024/01/31 02:14:49;;;;;;;14.20;12.90;;;3.30;99.90;;;;;;5030090;28;20685;-62
2024/01/31 02:17:16;;;;;;;13.40;12.00;;;3.30;99.90;;;;;;5021183;28;20208;-62
2024/01/31 02:19:42;;;;;;;13.35;11.95;;;3.40;99.90;;;;;;5029653;28;20249;-62
2024/01/31 02:22:16;;;;;;;13.55;12.35;;;3.40;99.90;;;;;;5029447;28;20239;-62
2024/01/31 02:24:43;;;;;;;13.43;12.27;;;3.40;99.90;;;;;;5029904;28;20310;-62
2024/01/31 02:27:10;;;;;;;12.57;11.38;;;3.40;99.90;;;;;;5029751;28;20273;-60
2024/01/31 02:29:38;;;;;;;13.57;12.27;;;3.40;99.90;;;;;;5029840;28;20298;-62
2024/01/31 02:32:05;;;;;;;12.95;11.77;;;3.40;99.90;;;;;;5029424;28;20349;-62
2024/01/31 02:34:32;;;;;;;12.60;11.30;;;3.50;99.90;;;;;;5029832;28;20301;-62
2024/01/31 02:36:59;;;;;;;13.10;11.15;;;3.50;99.90;;;;;;5029711;28;20796;-62
2024/01/31 02:39:27;;;;;;;12.75;11.82;;;3.50;99.90;;;;;;5029483;28;20217;-62
2024/01/31 02:41:54;;;;;;;13.18;11.88;;;3.50;99.90;;;;;;5029267;28;20222;-60
2024/01/31 02:44:22;;;;;;;12.90;11.50;;;3.50;99.90;;;;;;5029542;28;20273;-61
2024/01/31 02:46:49;;;;;;;13.77;12.57;;;3.50;99.90;;;;;;5029431;28;20799;-62
2024/01/31 02:49:16;;;;;;;12.52;11.40;;;3.50;99.90;;;;;;5029399;28;20598;-62
2024/01/31 02:51:43;;;;;;;13.07;11.65;;;3.50;99.90;;;;;;5028751;28;20239;-57
2024/01/31 02:54:10;;;;;;;12.88;11.68;;;3.50;99.90;;;;;;5029662;28;20221;-60
2024/01/31 02:56:38;;;;;;;12.52;11.50;;;3.50;99.90;;;;;;5027798;28;20202;-60
2024/01/31 02:59:05;;;;;;;14.55;12.82;;;3.60;99.90;;;;;;5029396;28;20207;-62
2024/01/31 03:01:31;;;;;;;16.02;11.35;;;3.60;99.90;;;;;;5028894;28;20226;-62
2024/01/31 03:03:58;;;;;;;13.40;12.10;;;3.60;99.90;;;;;;5029293;28;20210;-62
2024/01/31 03:06:25;;;;;;;13.55;12.15;;;3.60;99.90;;;;;;5029283;28;20218;-62
2024/01/31 03:08:52;;;;;;;13.98;12.60;;;3.60;99.90;;;;;;5028918;28;20302;-62
2024/01/31 03:11:19;;;;;;;14.45;13.15;;;3.60;99.90;;;;;;5028612;28;20602;-62
2024/01/31 03:13:48;;;;;;;15.43;13.80;;;3.60;99.90;;;;;;5028955;28;20211;-62
2024/01/31 03:16:15;;;;;;;14.30;13.07;;;3.60;99.90;;;;;;5028920;28;20218;-62
2024/01/31 03:18:41;;;;;;;13.75;12.40;;;3.60;99.90;;;;;;5028878;28;20290;-62
2024/01/31 03:21:08;;;;;;;15.20;13.73;;;3.60;99.90;;;;;;5028260;28;20217;-62
2024/01/31 03:23:35;;;;;;;12.50;11.23;;;3.70;99.90;;;;;;5029085;28;20412;-62
2024/01/31 03:26:02;;;;;;;13.35;12.13;;;3.60;99.90;;;;;;5029089;28;20306;-62
2024/01/31 03:28:29;;;;;;;12.52;11.32;;;3.70;99.90;;;;;;5028582;28;20217;-61
2024/01/31 03:30:57;;;;;;;13.43;12.40;;;3.70;99.90;;;;;;5028646;28;20213;-60
2024/01/31 03:33:24;;;;;;;17.15;13.10;;;3.70;99.90;;;;;;5028949;28;20261;-62
2024/01/31 03:35:51;;;;;;;14.70;13.13;;;3.70;99.90;;;;;;5028793;28;20339;-62
2024/01/31 03:38:17;;;;;;;15.10;13.70;;;3.70;99.90;;;;;;5028176;28;20219;-61
2024/01/31 03:40:44;;;;;;;15.90;13.35;;;3.70;99.90;;;;;;5028323;28;20233;-61
2024/01/31 03:43:11;;;;;;;13.50;12.10;;;3.70;99.90;;;;;;5028533;28;20235;-62
2024/01/31 03:45:38;;;;;;;13.65;12.35;;;3.80;99.90;;;;;;5028557;28;20211;-62
2024/01/31 03:48:07;;;;;;;14.00;12.60;;;3.70;99.90;;;;;;5028269;28;20213;-62
2024/01/31 03:50:34;;;;;;;14.43;13.13;;;3.80;99.90;;;;;;5028187;28;20214;-62
2024/01/31 03:53:01;;;;;;;13.85;12.60;;;3.80;99.90;;;;;;5028577;28;20258;-62
2024/01/31 03:55:28;;;;;;;14.25;12.85;;;3.80;99.90;;;;;;5028483;28;20217;-61
2024/01/31 03:57:54;;;;;;;13.93;12.60;;;3.80;99.90;;;;;;5027438;28;20207;-61
2024/01/31 04:00:21;;;;;;;16.77;13.68;;;3.80;99.90;;;;;;5026638;28;20962;-61
2024/01/31 04:02:48;;;;;;;13.25;11.95;;;3.80;99.90;;;;;;5026584;28;20231;-61
2024/01/31 04:05:16;;;;;;;17.27;15.48;;;3.80;99.90;;;;;;5023269;28;20299;-62
2024/01/31 04:07:44;;;;;;;13.85;12.45;;;3.80;99.90;;;;;;5024671;28;20311;-61
2024/01/31 04:10:11;;;;;;;15.45;13.95;;;3.80;99.90;;;;;;5018723;28;20219;-62
2024/01/31 04:12:37;;;;;;;14.10;12.80;;;3.80;99.90;;;;;;5025028;28;20615;-62
2024/01/31 04:15:05;;;;;;;15.75;14.15;;;3.80;99.90;;;;;;5013880;28;20218;-60
2024/01/31 04:17:32;;;;;;;14.32;12.93;;;3.80;99.90;;;;;;5026527;28;20217;-62
2024/01/31 04:19:59;;;;;;;15.05;13.65;;;3.80;99.90;;;;;;5027768;28;20211;-62
2024/01/31 04:22:27;;;;;;;14.95;13.55;;;3.80;99.90;;;;;;5018467;28;20233;-62
2024/01/31 04:24:54;;;;;;;14.60;13.10;;;3.80;99.90;;;;;;5025927;28;20221;-61
2024/01/31 04:27:21;;;;;;;16.08;14.55;;;3.80;99.90;;;;;;5027629;28;20223;-62
2024/01/31 04:29:48;;;;;;;15.13;13.60;;;3.80;99.90;;;;;;5027808;28;20214;-61
2024/01/31 04:32:15;;;;;;;16.83;13.50;;;3.90;99.90;;;;;;5027404;28;20715;-61
2024/01/31 04:34:42;;;;;;;20.00;17.25;;;3.90;99.90;;;;;;5028299;28;20306;-61
2024/01/31 04:37:09;;;;;;;16.35;14.95;;;3.90;99.90;;;;;;5028149;28;20816;-62
2024/01/31 04:39:37;;;;;;;15.73;14.18;;;4.00;99.90;;;;;;5028293;28;20326;-62
2024/01/31 04:42:05;;;;;;;17.85;16.15;;;4.00;99.90;;;;;;5027367;28;20326;-62
2024/01/31 04:44:32;;;;;;;15.63;14.32;;;4.00;99.90;;;;;;5019888;28;20208;-62
2024/01/31 04:46:59;;;;;;;18.38;16.48;;;4.00;99.90;;;;;;5028122;28;20666;-62
2024/01/31 04:49:26;;;;;;;14.55;13.18;;;4.00;99.90;;;;;;5027824;28;20215;-62
2024/01/31 04:51:53;;;;;;;16.50;14.90;;;4.00;99.90;;;;;;5031262;28;20258;-61
2024/01/31 04:54:20;;;;;;;18.38;16.15;;;4.00;99.90;;;;;;5028805;28;20685;-62
2024/01/31 04:56:48;;;;;;;17.80;15.82;;;4.00;99.90;;;;;;5031664;28;20225;-59
2024/01/31 04:59:15;;;;;;;17.63;15.77;;;4.00;99.90;;;;;;5031476;28;20217;-62
2024/01/31 05:01:43;;;;;;;23.73;17.67;;;4.00;99.90;;;;;;5030846;28;20241;-60
2024/01/31 05:04:10;;;;;;;19.10;17.50;;;4.00;99.90;;;;;;5031688;28;20218;-61
2024/01/31 05:06:36;;;;;;;18.63;16.73;;;4.00;99.90;;;;;;5031455;28;20306;-60
2024/01/31 05:09:04;;;;;;;16.05;14.45;;;4.00;99.90;;;;;;5031302;28;20334;-62
2024/01/31 05:11:30;;;;;;;18.17;15.85;;;4.00;99.90;;;;;;5030945;28;20250;-61
2024/01/31 05:13:59;;;;;;;21.17;17.00;;;4.00;99.90;;;;;;5031616;28;20244;-62
2024/01/31 05:16:25;;;;;;;19.52;17.50;;;4.00;99.90;;;;;;5031764;28;20222;-62
2024/01/31 05:18:52;;;;;;;18.05;16.27;;;4.00;99.90;;;;;;5031374;28;20922;-60
2024/01/31 05:21:19;;;;;;;19.80;16.83;;;4.00;99.90;;;;;;5030758;28;20210;-62
2024/01/31 05:23:46;;;;;;;17.92;16.20;;;4.00;99.90;;;;;;5031209;28;20218;-62
2024/01/31 05:26:13;;;;;;;19.15;16.70;;;4.00;99.90;;;;;;5031005;28;20297;-62
2024/01/31 05:28:40;;;;;;;18.05;16.35;;;4.00;99.90;;;;;;5030823;28;20214;-61
2024/01/31 05:31:08;;;;;;;19.02;17.02;;;4.00;99.90;;;;;;5030528;28;20700;-61
2024/01/31 05:33:35;;;;;;;19.50;17.50;;;4.10;99.90;;;;;;5031081;28;20610;-62
2024/01/31 05:36:02;;;;;;;17.38;15.60;;;4.10;99.90;;;;;;5030860;28;20219;-61
2024/01/31 05:38:29;;;;;;;17.58;15.77;;;4.10;99.90;;;;;;5030742;28;20217;-62
2024/01/31 05:40:56;;;;;;;18.52;16.15;;;4.10;99.90;;;;;;5030406;28;20215;-61
2024/01/31 05:43:23;;;;;;;17.92;16.13;;;4.10;99.90;;;;;;5030705;28;20748;-61
2024/01/31 05:45:50;;;;;;;17.17;15.50;;;4.10;99.90;;;;;;5031213;28;20217;-60
2024/01/31 05:48:18;;;;;;;16.13;14.60;;;4.10;99.90;;;;;;5030910;28;20214;-61
2024/01/31 05:50:45;;;;;;;16.98;15.38;;;4.10;99.90;;;;;;5030359;28;20217;-60
2024/01/31 05:53:12;;;;;;;17.10;15.48;;;4.10;99.90;;;;;;5030633;28;20250;-60
2024/01/31 05:55:38;;;;;;;16.20;14.50;;;4.10;99.90;;;;;;5030473;28;20214;-62
2024/01/31 05:58:06;;;;;;;16.88;15.27;;;4.10;99.90;;;;;;5030130;28;20207;-60
2024/01/31 06:00:34;;;;;;;19.10;17.30;;;4.10;99.90;;;;;;5030061;28;20210;-60
2024/01/31 06:03:01;;;;;;;14.82;13.52;;;4.10;99.90;;;;;;5029557;28;20233;-61
2024/01/31 06:05:29;;;;;;;16.75;15.10;;;4.00;99.90;;;;;;5030431;28;20213;-62
2024/01/31 06:07:56;;;;;;;15.55;13.98;;;4.00;99.90;;;;;;5030196;28;20215;-61
2024/01/31 06:10:24;;;;;;;16.13;14.63;;;4.00;99.90;;;;;;5029592;28;20207;-62
2024/01/31 06:12:51;;;;;;;15.90;14.45;;;4.00;99.90;;;;;;5037427;22;20243;-61
2024/01/31 06:15:18;;;;;;;15.57;14.10;;;3.90;99.90;;;;;;5002224;28;20199;-60
2024/01/31 06:17:45;;;;;;;14.68;13.15;;;3.90;99.90;;;;;;5000998;28;20215;-61
2024/01/31 06:20:13;;;;;;;13.18;11.73;;;3.90;99.90;;;;;;5005611;28;20207;-59
2024/01/31 06:22:41;;;;;;;12.95;11.55;;;3.90;99.90;;;;;;5003179;28;20232;-60
2024/01/31 06:25:08;;;;;;;15.82;12.30;;;3.80;99.90;;;;;;4990914;28;20216;-61
2024/01/31 06:27:36;;;;;;;12.45;11.35;;;3.70;99.90;;;;;;4990865;28;20218;-60
2024/01/31 06:30:04;;;;;;;11.90;10.68;;;3.70;99.90;;;;;;4990597;28;20215;-60
2024/01/31 06:32:32;;;;;;;12.02;10.73;;;3.60;99.90;;;;;;4982512;28;20739;-59
2024/01/31 06:34:59;;;;;;;11.90;10.75;;;3.50;99.90;;;;;;4983833;28;20212;-60
2024/01/31 06:37:26;;;;;;;14.48;12.85;;;3.40;99.90;;;;;;4990795;28;20208;-59
2024/01/31 06:39:55;;;;;;;16.15;12.50;;;3.40;99.90;;;;;;4990253;28;20220;-61
2024/01/31 06:42:22;;;;;;;11.85;10.82;;;3.30;99.90;;;;;;4989880;28;20233;-59
2024/01/31 06:44:49;;;;;;;13.80;12.23;;;3.20;99.90;;;;;;4990421;28;20208;-60
2024/01/31 06:47:16;;;;;;;16.63;11.15;;;3.20;99.90;;;;;;4990197;28;20223;-59
2024/01/31 06:49:42;;;;;;;13.90;11.40;;;3.10;99.90;;;;;;4990169;28;20212;-59
2024/01/31 06:52:10;;;;;;;19.20;13.70;;;3.00;99.90;;;;;;4989953;28;20309;-60
2024/01/31 06:54:37;;;;;;;19.75;12.65;;;2.90;99.90;;;;;;4990458;28;20216;-59
2024/01/31 06:57:05;;;;;;;16.83;11.68;;;2.90;99.90;;;;;;4990258;28;20261;-59
2024/01/31 06:59:32;;;;;;;13.43;11.20;;;2.80;99.90;;;;;;4989931;28;20209;-60
2024/01/31 07:01:59;;;;;;;16.83;13.25;;;2.70;99.90;;;;;;4989377;28;20215;-59
2024/01/31 07:04:26;;;;;;;14.30;12.48;;;2.70;99.90;;;;;;4986633;28;20295;-60
2024/01/31 07:06:53;;;;;;;15.82;12.40;;;2.60;99.90;;;;;;4982513;28;20291;-60
2024/01/31 07:09:20;;;;;;;14.65;11.20;;;2.60;99.90;;;;;;4989717;28;20211;-59
2024/01/31 07:11:47;;;;;;;13.00;11.70;;;2.50;99.90;;;;;;4988847;28;20786;-61
2024/01/31 07:14:15;;;;;;;12.88;11.55;;;2.40;99.90;;;;;;4989522;28;20240;-60
2024/01/31 07:16:42;;;;;;;13.85;11.88;;;2.40;99.90;;;;;;4989591;28;20584;-58
2024/01/31 07:19:09;;;;;;;12.80;11.43;;;2.30;99.90;;;;;;4989526;28;20219;-58
2024/01/31 07:21:36;;;;;;;20.85;12.18;;;2.30;99.90;;;;;;4986545;28;20235;-59
2024/01/31 07:24:03;;;;;;;16.15;14.30;;;2.30;99.90;;;;;;4967337;28;20225;-60
2024/01/31 07:26:30;;;;;;;16.83;12.65;;;2.20;99.90;;;;;;4970300;28;20213;-61
2024/01/31 07:28:57;;;;;;;19.52;13.13;;;2.20;99.90;;;;;;4970046;28;20308;-61
2024/01/31 07:31:25;;;;;;;14.52;13.02;;;2.10;99.90;;;;;;4969716;28;20217;-59
2024/01/31 07:33:52;;;;;;;19.40;12.93;;;2.10;99.90;;;;;;4970081;28;20240;-60
2024/01/31 07:36:19;;;;;;;14.43;12.77;;;2.10;99.90;;;;;;4969970;28;20760;-59
2024/01/31 07:38:46;;;;;;;14.23;12.30;;;2.00;99.90;;;;;;4969659;28;20274;-60
2024/01/31 07:41:14;;;;;;;15.43;11.93;;;2.00;99.90;;;;;;4969556;28;20731;-59
2024/01/31 07:43:41;;;;;;;14.55;11.85;;;2.00;99.90;;;;;;4974267;28;20230;-61
2024/01/31 07:46:08;;;;;;;17.75;12.13;;;2.00;99.90;;;;;;4961551;28;20210;-60
2024/01/31 07:48:36;;;;;;;15.30;12.45;;;1.90;99.90;;;;;;4958235;28;20215;-60
2024/01/31 07:51:04;;;;;;;11.73;10.50;;;1.90;99.90;;;;;;4959188;28;20201;-59
2024/01/31 07:53:31;;;;;;;13.43;10.93;;;1.90;99.90;;;;;;4959718;28;20228;-59
2024/01/31 07:55:57;;;;;;;15.10;13.60;;;1.90;99.90;;;;;;4960567;28;20225;-61
2024/01/31 07:58:24;;;;;;;16.92;13.60;;;1.90;99.90;;;;;;4963155;28;20224;-61
2024/01/31 08:00:51;;;;;;;14.77;12.38;;;1.90;99.90;;;;;;4961114;28;20209;-61
2024/01/31 08:03:19;;;;;;;22.30;12.88;;;2.00;99.90;;;;;;4969353;28;20335;-60
2024/01/31 08:05:47;;;;;;;19.15;12.43;;;2.00;99.90;;;;;;4965748;28;20216;-60
2024/01/31 08:08:14;;;;;;;12.75;9.98;;;2.00;99.90;;;;;;4960966;28;20211;-58
2024/01/31 08:10:40;;;;;;;14.90;10.80;;;2.00;99.90;;;;;;4968525;28;20212;-61
2024/01/31 08:13:07;;;;;;;15.60;10.85;;;2.00;99.90;;;;;;4958487;28;20241;-60
2024/01/31 08:15:34;;;;;;;15.00;13.38;;;2.00;99.90;;;;;;4958420;28;20223;-58
2024/01/31 08:18:01;;;;;;;14.07;11.00;;;2.00;99.90;;;;;;4966234;28;20706;-58
2024/01/31 08:20:28;;;;;;;11.88;10.73;;;2.00;99.90;;;;;;4957261;28;20565;-58
2024/01/31 08:22:57;;;;;;;12.13;10.50;;;2.00;99.90;;;;;;4968286;28;20245;-58
2024/01/31 08:25:24;;;;;;;11.45;9.88;;;2.10;99.90;;;;;;4960369;28;20300;-61
2024/01/31 08:27:51;;;;;;;11.82;9.90;;;2.10;99.90;;;;;;4968798;28;20215;-61
2024/01/31 08:30:18;;;;;;;11.88;10.68;;;2.20;99.90;;;;;;4961582;28;20209;-61
2024/01/31 08:32:46;;;;;;;11.68;10.48;;;2.20;99.90;;;;;;4969782;28;20899;-59
2024/01/31 08:35:13;;;;;;;14.85;12.75;;;2.30;99.90;;;;;;4961999;28;20209;-60
2024/01/31 08:37:40;;;;;;;15.38;12.45;;;2.40;99.90;;;;;;4970024;28;20209;-61
2024/01/31 08:40:10;;;;;;;14.10;12.70;;;2.50;99.90;;;;;;4967923;28;20220;-61
2024/01/31 08:42:38;;;;;;;15.80;13.43;;;2.60;99.90;;;;;;4961337;28;20329;-59
2024/01/31 08:45:06;;;;;;;16.58;13.00;;;2.70;99.90;;;;;;4972983;28;20205;-61
2024/01/31 08:47:33;;;;;;;15.23;13.82;;;2.80;99.90;;;;;;4969832;28;20244;-60
2024/01/31 08:50:00;;;;;;;17.60;13.90;;;2.80;99.90;;;;;;4972054;28;20216;-59
2024/01/31 08:52:26;;;;;;;13.98;12.50;;;2.90;99.90;;;;;;4971220;28;20252;-60
2024/01/31 08:54:53;;;;;;;15.60;13.85;;;3.00;99.90;;;;;;4972286;28;20336;-60
2024/01/31 08:57:22;;;;;;;17.77;15.98;;;3.10;99.90;;;;;;4966669;28;20321;-60
2024/01/31 08:59:48;;;;;;;16.20;14.50;;;3.20;99.90;;;;;;4961596;28;20313;-60
2024/01/31 09:02:15;;;;;;;16.58;14.55;;;3.30;99.90;;;;;;4971576;28;20236;-59
2024/01/31 09:04:42;;;;;;;17.27;12.85;;;3.40;99.90;;;;;;4969313;28;20205;-60
2024/01/31 09:07:09;;;;;;;18.95;14.30;;;3.50;99.90;;;;;;4957187;28;20591;-61
2024/01/31 09:09:38;;;;;;;16.58;14.85;;;3.50;99.90;;;;;;4968311;28;20213;-60
2024/01/31 09:12:05;;;;;;;16.70;15.30;;;3.60;99.90;;;;;;4957701;28;20265;-61
2024/01/31 09:14:33;;;;;;;17.65;15.40;;;3.70;99.90;;;;;;4969679;28;20320;-59
2024/01/31 09:17:00;;;;;;;19.48;15.65;;;3.70;99.90;;;;;;4972003;28;20598;-60
2024/01/31 09:19:28;;;;;;;16.58;14.73;;;3.80;99.90;;;;;;4971276;28;20210;-62
2024/01/31 09:21:55;;;;;;;18.13;16.17;;;3.90;99.90;;;;;;4971200;28;20213;-59
2024/01/31 09:24:21;;;;;;;15.88;14.27;;;4.00;99.90;;;;;;4970796;28;20628;-60
2024/01/31 09:26:48;;;;;;;13.45;12.15;;;4.20;99.90;;;;;;4971641;28;20213;-61
2024/01/31 09:29:15;;;;;;;14.93;13.43;;;4.30;99.90;;;;;;4971581;28;20215;-61
2024/01/31 09:31:43;;;;;;;16.38;13.85;;;4.40;99.90;;;;;;4973166;28;20312;-61
2024/01/31 09:34:10;;;;;;;12.98;11.70;;;4.50;99.90;;;;;;4982562;28;20230;-62
2024/01/31 09:36:37;;;;;;;14.85;13.45;;;4.60;99.90;;;;;;4990217;28;20216;-61
2024/01/31 09:39:05;;;;;;;15.55;12.50;;;4.70;99.90;;;;;;4990788;28;20218;-60
2024/01/31 09:41:32;;;;;;;13.23;11.82;;;4.90;99.90;;;;;;4990608;28;20213;-59
2024/01/31 09:44:00;;;;;;;15.38;13.20;;;5.00;99.90;;;;;;4987162;28;20224;-61
2024/01/31 09:46:27;;;;;;;16.55;12.95;;;5.10;99.90;;;;;;4990713;28;20460;-60
2024/01/31 09:48:55;;;;;;;14.07;12.63;;;5.30;99.90;;;;;;4990166;28;20215;-60
2024/01/31 09:51:22;;;;;;;15.75;13.45;;;5.50;99.90;;;;;;4990239;28;20244;-61
2024/01/31 09:53:53;;;;;;;18.08;14.68;;;5.60;99.90;;;;;;4990312;28;20232;-61
2024/01/31 09:56:21;;;;;;;16.88;15.18;;;5.80;99.90;;;;;;4990588;28;20215;-61
2024/01/31 09:58:48;;;;;;;16.92;14.02;;;5.90;99.90;;;;;;4990276;28;20315;-62
2024/01/31 10:01:20;;;;;;;17.88;16.13;;;6.10;99.90;;;;;;4989950;28;20705;-62
2024/01/31 10:03:47;;;;;;;15.45;13.93;;;6.30;99.90;;;;;;4956659;28;20678;-62
2024/01/31 10:06:15;;;;;;;14.63;12.65;;;6.50;99.90;;;;;;4962388;28;20597;-58
2024/01/31 10:08:42;;;;;;;16.52;13.48;;;6.70;99.90;;;;;;4970592;28;20319;-61
2024/01/31 10:11:09;;;;;;;13.43;11.52;;;6.90;99.90;;;;;;4970179;28;20219;-60
2024/01/31 10:13:36;;;;;;;14.35;12.23;;;7.10;99.90;;;;;;4969682;28;20237;-59
2024/01/31 10:16:03;;;;;;;13.70;11.80;;;7.30;99.90;;;;;;4976773;28;20998;-60
2024/01/31 10:18:30;;;;;;;13.88;11.73;;;7.40;99.90;;;;;;4989528;28;20216;-61
2024/01/31 10:20:57;;;;;;;14.90;13.50;;;7.60;99.90;;;;;;4989119;28;20691;-61
2024/01/31 10:23:26;;;;;;;11.40;10.30;;;7.70;99.90;;;;;;4989087;28;20327;-60
2024/01/31 10:25:53;;;;;;;16.20;11.40;;;7.80;99.90;;;;;;4989443;28;20212;-61
2024/01/31 10:28:20;;;;;;;11.10;9.90;;;7.90;99.90;;;;;;4989436;28;21007;-61
2024/01/31 10:30:48;;;;;;;11.98;10.77;;;8.00;99.90;;;;;;4989186;28;20458;-61
2024/01/31 10:33:15;;;;;;;11.03;9.90;;;8.20;99.90;;;;;;4989229;28;20242;-61
2024/01/31 10:35:45;;;;;;;12.40;11.13;;;8.30;99.90;;;;;;4989502;28;20586;-61
2024/01/31 10:38:14;;;;;;;10.82;9.27;;;8.40;99.90;;;;;;4986913;28;20228;-61
2024/01/31 10:40:43;;;;;;;14.73;12.20;;;8.50;99.90;;;;;;4963778;28;20213;-60
2024/01/31 10:43:10;;;;;;;13.60;10.87;;;8.60;99.90;;;;;;4952798;28;20560;-61
2024/01/31 10:45:37;;;;;;;16.13;10.73;;;8.70;99.90;;;;;;4965259;28;20446;-61
2024/01/31 10:48:04;;;;;;;14.87;10.13;;;8.80;99.90;;;;;;4957968;28;20479;-60
2024/01/31 10:50:32;;;;;;;11.50;9.70;;;8.90;99.90;;;;;;4956919;28;20532;-61
2024/01/31 10:53:00;;;;;;;17.33;9.00;;;9.10;99.90;;;;;;4965657;28;20479;-61
2024/01/31 10:55:28;;;;;;;8.50;7.70;;;9.20;99.90;;;;;;4953372;28;21039;-62
2024/01/31 10:57:57;;;;;;;11.07;9.73;;;9.30;99.90;;;;;;4962771;28;20460;-60
2024/01/31 11:00:28;;;;;;;9.27;8.37;;;9.30;99.90;;;;;;4960784;28;20445;-61
2024/01/31 11:02:57;;;;;;;11.67;8.93;;;9.50;99.90;;;;;;4954637;28;20981;-61
2024/01/31 11:05:26;;;;;;;9.63;8.67;;;9.50;99.90;;;;;;4966119;28;20450;-61
2024/01/31 11:07:53;;;;;;;9.70;8.70;;;9.70;99.90;;;;;;4954259;28;20458;-61
2024/01/31 11:10:22;;;;;;;8.40;7.60;;;9.70;99.90;;;;;;4959178;28;20461;-61
2024/01/31 11:12:58;;;;;;;15.70;13.67;;;9.80;99.90;;;;;;4963696;28;20484;-61
2024/01/31 11:15:32;;;;;;;11.33;10.23;;;9.80;99.90;;;;;;4952880;28;20479;-59
2024/01/31 11:18:06;;;;;;;10.83;9.47;;;9.80;99.90;;;;;;4961508;28;20985;-58
2024/01/31 11:20:35;;;;;;;8.70;8.00;;;9.90;99.90;;;;;;4960996;28;20460;-60
2024/01/31 11:23:03;;;;;;;10.87;8.83;;;10.00;99.90;;;;;;4952864;28;20469;-60
2024/01/31 11:25:34;;;;;;;8.83;7.93;;;10.00;99.90;;;;;;4952804;28;20441;-62
2024/01/31 11:28:04;;;;;;;14.57;10.73;;;10.00;99.90;;;;;;4961054;28;20457;-61
2024/01/31 11:30:31;;;;;;;11.67;10.60;;;10.10;99.90;;;;;;4960432;28;20951;-61
2024/01/31 11:32:59;;;;;;;10.03;8.67;;;10.00;99.90;;;;;;4953040;28;20485;-61
2024/01/31 11:35:28;;;;;;;10.50;8.10;;;10.00;99.90;;;;;;4965022;28;20497;-62
2024/01/31 11:37:56;;;;;;;12.20;10.33;;;10.00;99.90;;;;;;4956364;28;20460;-62
2024/01/31 11:40:23;;;;;;;16.10;11.20;;;10.00;99.90;;;;;;4957586;28;21100;-63
2024/01/31 11:42:51;;;;;;;13.77;9.20;;;10.10;99.90;;;;;;4963435;28;20567;-61
2024/01/31 11:45:20;;;;;;;9.90;8.10;;;10.10;99.90;;;;;;4952056;28;20450;-61
2024/01/31 11:47:48;;;;;;;7.10;6.40;;;10.10;99.90;;;;;;4962507;28;20453;-62
2024/01/31 11:50:15;;;;;;;7.70;7.00;;;10.10;99.90;;;;;;4958801;28;20491;-62
2024/01/31 11:52:42;;;;;;;11.73;8.20;;;10.10;99.90;;;;;;4960942;28;20472;-62
2024/01/31 11:55:12;;;;;;;8.90;7.60;;;10.10;99.90;;;;;;4952271;28;20604;-58
2024/01/31 11:57:38;;;;;;;7.20;6.20;;;10.10;99.90;;;;;;4968217;28;20441;-61
2024/01/31 12:00:07;;;;;;;6.80;5.70;;;10.00;99.90;;;;;;4959195;28;20449;-61
2024/01/31 12:02:35;;;;;;;8.07;6.73;;;10.00;99.90;;;;;;4960720;28;20531;-62
2024/01/31 12:05:02;;;;;;;8.37;6.83;;;10.00;99.90;;;;;;4952500;28;21230;-61
2024/01/31 12:07:29;;;;;;;6.60;5.73;;;10.00;99.90;;;;;;4965001;28;20603;-59
2024/01/31 12:09:56;;;;;;;9.07;6.83;;;9.90;99.90;;;;;;4955964;28;20448;-62
2024/01/31 12:12:23;;;;;;;6.10;5.57;;;9.90;99.90;;;;;;4982959;23;20863;-64
2024/01/31 12:14:50;;;;;;;4.90;4.50;;;9.90;99.90;;;;;;4984565;28;21115;-63
2024/01/31 12:17:22;;;;;;;6.23;5.33;;;9.90;99.90;;;;;;4974400;28;20448;-63
2024/01/31 12:19:50;;;;;;;8.53;5.40;;;9.90;99.90;;;;;;4987496;28;21154;-63
2024/01/31 12:22:18;;;;;;;6.43;5.80;;;10.00;99.90;;;;;;4986883;28;20953;-63
2024/01/31 12:24:45;;;;;;;7.00;6.30;;;9.90;99.90;;;;;;4987408;28;20856;-63
2024/01/31 12:27:11;;;;;;;10.40;9.40;;;10.00;99.90;;;;;;4987111;28;20456;-63
2024/01/31 12:29:39;;;;;;;4.87;4.37;;;9.90;99.90;;;;;;4987291;28;20452;-63
2024/01/31 12:32:07;;;;;;;6.00;5.10;;;9.90;99.90;;;;;;4986793;28;20538;-63
2024/01/31 12:34:34;;;;;;;6.57;5.97;;;9.90;99.90;;;;;;4987375;28;20491;-63
2024/01/31 12:37:02;;;;;;;7.90;6.20;;;9.90;99.90;;;;;;4987291;28;20483;-63
2024/01/31 12:39:29;;;;;;;7.33;6.47;;;9.80;99.90;;;;;;4987330;28;20440;-63